sensor_id;sensor_type;location;lat;lon;timestamp;P1;durP1;ratioP1;P2;durP2;ratioP2
3293;SDS011;1659;51.470;6.770;2022-12-31T00:00:56;3.40;;;2.10;;
3293;SDS011;1659;51.470;6.770;2022-12-31T00:03:22;1.80;;;1.70;;
3293;SDS011;1659;51.470;6.770;2022-12-31T00:05:49;1.77;;;1.70;;
3293;SDS011;1659;51.470;6.770;2022-12-31T00:08:15;4.80;;;2.30;;
3293;SDS011;1659;51.470;6.770;2022-12-31T00:10:43;2.00;;;1.90;;
3293;SDS011;1659;51.470;6.770;2022-12-31T00:13:10;2.90;;;2.13;;
3293;SDS011;1659;51.470;6.770;2022-12-31T00:15:38;3.37;;;1.87;;
3293;SDS011;1659;51.470;6.770;2022-12-31T00:18:05;1.10;;;1.10;;
3293;SDS011;1659;51.470;6.770;2022-12-31T00:20:32;1.67;;;1.60;;
3293;SDS011;1659;51.470;6.770;2022-12-31T00:22:59;1.53;;;1.43;;
3293;SDS011;1659;51.470;6.770;2022-12-31T00:25:26;1.67;;;1.30;;
3293;SDS011;1659;51.470;6.770;2022-12-31T00:27:54;2.33;;;1.10;;
3293;SDS011;1659;51.470;6.770;2022-12-31T00:30:20;3.07;;;1.30;;
3293;SDS011;1659;51.470;6.770;2022-12-31T00:32:47;1.30;;;1.20;;
3293;SDS011;1659;51.470;6.770;2022-12-31T00:35:13;1.00;;;1.00;;
3293;SDS011;1659;51.470;6.770;2022-12-31T00:37:40;1.37;;;1.27;;
3293;SDS011;1659;51.470;6.770;2022-12-31T00:40:07;2.33;;;1.40;;
3293;SDS011;1659;51.470;6.770;2022-12-31T00:42:36;2.30;;;1.30;;
3293;SDS011;1659;51.470;6.770;2022-12-31T00:45:04;2.13;;;1.50;;
3293;SDS011;1659;51.470;6.770;2022-12-31T00:47:31;1.40;;;1.33;;
3293;SDS011;1659;51.470;6.770;2022-12-31T00:49:58;1.20;;;1.20;;
3293;SDS011;1659;51.470;6.770;2022-12-31T00:52:24;4.30;;;1.50;;
3293;SDS011;1659;51.470;6.770;2022-12-31T00:54:51;1.47;;;1.03;;
3293;SDS011;1659;51.470;6.770;2022-12-31T00:57:17;1.40;;;1.30;;
3293;SDS011;1659;51.470;6.770;2022-12-31T00:59:44;4.30;;;3.60;;
3293;SDS011;1659;51.470;6.770;2022-12-31T01:02:11;8.00;;;3.77;;
3293;SDS011;1659;51.470;6.770;2022-12-31T01:04:38;6.70;;;4.30;;
3293;SDS011;1659;51.470;6.770;2022-12-31T01:07:05;6.63;;;3.27;;
3293;SDS011;1659;51.470;6.770;2022-12-31T01:09:31;3.70;;;3.00;;
3293;SDS011;1659;51.470;6.770;2022-12-31T01:11:58;2.17;;;2.07;;
3293;SDS011;1659;51.470;6.770;2022-12-31T01:14:36;1.70;;;1.60;;
3293;SDS011;1659;51.470;6.770;2022-12-31T01:20:10;1.90;;;1.80;;
3293;SDS011;1659;51.470;6.770;2022-12-31T01:22:39;1.80;;;1.70;;
3293;SDS011;1659;51.470;6.770;2022-12-31T01:25:08;2.27;;;1.77;;
3293;SDS011;1659;51.470;6.770;2022-12-31T01:27:35;1.40;;;1.40;;
3293;SDS011;1659;51.470;6.770;2022-12-31T01:30:01;1.43;;;1.43;;
3293;SDS011;1659;51.470;6.770;2022-12-31T01:32:29;2.23;;;1.57;;
3293;SDS011;1659;51.470;6.770;2022-12-31T01:34:57;2.50;;;1.83;;
3293;SDS011;1659;51.470;6.770;2022-12-31T01:37:24;2.00;;;1.90;;
3293;SDS011;1659;51.470;6.770;2022-12-31T01:39:52;6.80;;;3.47;;
3293;SDS011;1659;51.470;6.770;2022-12-31T01:42:19;4.33;;;2.60;;
3293;SDS011;1659;51.470;6.770;2022-12-31T01:44:49;4.43;;;3.20;;
3293;SDS011;1659;51.470;6.770;2022-12-31T01:47:21;5.93;;;4.10;;
3293;SDS011;1659;51.470;6.770;2022-12-31T01:49:59;6.50;;;4.13;;
3293;SDS011;1659;51.470;6.770;2022-12-31T01:52:35;6.80;;;3.63;;
3293;SDS011;1659;51.470;6.770;2022-12-31T01:55:26;5.10;;;3.40;;
3293;SDS011;1659;51.470;6.770;2022-12-31T01:58:10;4.20;;;2.80;;
3293;SDS011;1659;51.470;6.770;2022-12-31T02:00:51;2.00;;;1.53;;
3293;SDS011;1659;51.470;6.770;2022-12-31T02:06:42;1.17;;;1.07;;
3293;SDS011;1659;51.470;6.770;2022-12-31T02:10:16;0.80;;;0.80;;
3293;SDS011;1659;51.470;6.770;2022-12-31T02:12:43;0.70;;;0.70;;
3293;SDS011;1659;51.470;6.770;2022-12-31T02:15:10;0.57;;;0.57;;
3293;SDS011;1659;51.470;6.770;2022-12-31T02:17:38;0.50;;;0.50;;
3293;SDS011;1659;51.470;6.770;2022-12-31T02:23:51;0.50;;;0.50;;
3293;SDS011;1659;51.470;6.770;2022-12-31T02:32:56;1.73;;;0.90;;
3293;SDS011;1659;51.470;6.770;2022-12-31T02:35:41;0.60;;;0.60;;
3293;SDS011;1659;51.470;6.770;2022-12-31T02:38:16;0.57;;;0.57;;
3293;SDS011;1659;51.470;6.770;2022-12-31T02:40:47;0.50;;;0.50;;
3293;SDS011;1659;51.470;6.770;2022-12-31T02:45:57;0.70;;;0.60;;
3293;SDS011;1659;51.470;6.770;2022-12-31T02:49:07;0.60;;;0.60;;
3293;SDS011;1659;51.470;6.770;2022-12-31T02:55:22;0.50;;;0.50;;
3293;SDS011;1659;51.470;6.770;2022-12-31T02:58:00;1.20;;;1.10;;
3293;SDS011;1659;51.470;6.770;2022-12-31T03:00:38;1.30;;;1.23;;
3293;SDS011;1659;51.470;6.770;2022-12-31T03:03:27;0.70;;;0.70;;
3293;SDS011;1659;51.470;6.770;2022-12-31T03:05:56;2.37;;;1.17;;
3293;SDS011;1659;51.470;6.770;2022-12-31T03:08:25;0.60;;;0.60;;
3293;SDS011;1659;51.470;6.770;2022-12-31T03:10:52;0.80;;;0.80;;
3293;SDS011;1659;51.470;6.770;2022-12-31T03:13:20;0.70;;;0.70;;
3293;SDS011;1659;51.470;6.770;2022-12-31T03:15:46;0.60;;;0.60;;
3293;SDS011;1659;51.470;6.770;2022-12-31T03:18:13;0.70;;;0.70;;
3293;SDS011;1659;51.470;6.770;2022-12-31T03:20:43;1.60;;;0.70;;
3293;SDS011;1659;51.470;6.770;2022-12-31T03:23:31;1.63;;;0.80;;
3293;SDS011;1659;51.470;6.770;2022-12-31T03:25:59;0.70;;;0.70;;
3293;SDS011;1659;51.470;6.770;2022-12-31T03:28:26;1.43;;;0.60;;
3293;SDS011;1659;51.470;6.770;2022-12-31T03:30:54;0.60;;;0.60;;
3293;SDS011;1659;51.470;6.770;2022-12-31T03:33:22;0.87;;;0.70;;
3293;SDS011;1659;51.470;6.770;2022-12-31T03:35:49;0.70;;;0.70;;
3293;SDS011;1659;51.470;6.770;2022-12-31T03:38:17;0.70;;;0.70;;
3293;SDS011;1659;51.470;6.770;2022-12-31T03:40:46;2.87;;;0.90;;
3293;SDS011;1659;51.470;6.770;2022-12-31T03:43:29;1.37;;;0.67;;
3293;SDS011;1659;51.470;6.770;2022-12-31T03:46:04;1.13;;;0.90;;
3293;SDS011;1659;51.470;6.770;2022-12-31T03:48:39;0.70;;;0.70;;
3293;SDS011;1659;51.470;6.770;2022-12-31T03:51:06;0.70;;;0.70;;
3293;SDS011;1659;51.470;6.770;2022-12-31T03:53:32;1.10;;;0.60;;
3293;SDS011;1659;51.470;6.770;2022-12-31T03:56:01;0.87;;;0.80;;
3293;SDS011;1659;51.470;6.770;2022-12-31T03:58:27;1.57;;;1.10;;
3293;SDS011;1659;51.470;6.770;2022-12-31T04:00:54;1.00;;;0.90;;
3293;SDS011;1659;51.470;6.770;2022-12-31T04:03:20;2.20;;;1.03;;
3293;SDS011;1659;51.470;6.770;2022-12-31T04:05:50;0.70;;;0.70;;
3293;SDS011;1659;51.470;6.770;2022-12-31T04:08:18;2.30;;;0.90;;
3293;SDS011;1659;51.470;6.770;2022-12-31T04:10:44;1.53;;;1.13;;
3293;SDS011;1659;51.470;6.770;2022-12-31T04:13:12;1.20;;;0.90;;
3293;SDS011;1659;51.470;6.770;2022-12-31T04:15:38;0.80;;;0.80;;
3293;SDS011;1659;51.470;6.770;2022-12-31T04:18:05;0.87;;;0.87;;
3293;SDS011;1659;51.470;6.770;2022-12-31T04:20:31;1.17;;;0.87;;
3293;SDS011;1659;51.470;6.770;2022-12-31T04:22:58;1.27;;;1.20;;
3293;SDS011;1659;51.470;6.770;2022-12-31T04:25:24;1.40;;;0.90;;
3293;SDS011;1659;51.470;6.770;2022-12-31T04:27:51;1.03;;;0.87;;
3293;SDS011;1659;51.470;6.770;2022-12-31T04:30:19;0.93;;;0.70;;
3293;SDS011;1659;51.470;6.770;2022-12-31T04:32:45;1.73;;;1.23;;
3293;SDS011;1659;51.470;6.770;2022-12-31T04:35:12;0.87;;;0.83;;
3293;SDS011;1659;51.470;6.770;2022-12-31T04:37:38;1.30;;;0.80;;
3293;SDS011;1659;51.470;6.770;2022-12-31T04:40:05;0.90;;;0.90;;
3293;SDS011;1659;51.470;6.770;2022-12-31T04:42:33;1.70;;;0.97;;
3293;SDS011;1659;51.470;6.770;2022-12-31T04:44:59;2.30;;;0.90;;
3293;SDS011;1659;51.470;6.770;2022-12-31T04:47:27;0.80;;;0.80;;
3293;SDS011;1659;51.470;6.770;2022-12-31T04:49:54;2.17;;;0.90;;
3293;SDS011;1659;51.470;6.770;2022-12-31T04:52:20;0.80;;;0.80;;
3293;SDS011;1659;51.470;6.770;2022-12-31T04:54:47;1.00;;;1.00;;
3293;SDS011;1659;51.470;6.770;2022-12-31T04:57:13;2.87;;;0.90;;
3293;SDS011;1659;51.470;6.770;2022-12-31T04:59:40;1.10;;;1.10;;
3293;SDS011;1659;51.470;6.770;2022-12-31T05:02:06;2.90;;;1.10;;
3293;SDS011;1659;51.470;6.770;2022-12-31T05:04:34;0.90;;;0.90;;
3293;SDS011;1659;51.470;6.770;2022-12-31T05:07:01;2.93;;;1.20;;
3293;SDS011;1659;51.470;6.770;2022-12-31T05:09:27;1.27;;;1.17;;
3293;SDS011;1659;51.470;6.770;2022-12-31T05:11:55;4.53;;;1.10;;
3293;SDS011;1659;51.470;6.770;2022-12-31T05:14:21;1.20;;;0.83;;
3293;SDS011;1659;51.470;6.770;2022-12-31T05:16:48;0.80;;;0.80;;
3293;SDS011;1659;51.470;6.770;2022-12-31T05:19:15;2.70;;;0.87;;
3293;SDS011;1659;51.470;6.770;2022-12-31T05:21:43;2.00;;;1.07;;
3293;SDS011;1659;51.470;6.770;2022-12-31T05:24:30;0.80;;;0.80;;
3293;SDS011;1659;51.470;6.770;2022-12-31T05:26:56;1.57;;;0.90;;
3293;SDS011;1659;51.470;6.770;2022-12-31T05:29:23;0.80;;;0.80;;
3293;SDS011;1659;51.470;6.770;2022-12-31T05:31:49;0.70;;;0.70;;
3293;SDS011;1659;51.470;6.770;2022-12-31T05:34:16;0.80;;;0.80;;
3293;SDS011;1659;51.470;6.770;2022-12-31T05:36:44;0.80;;;0.80;;
3293;SDS011;1659;51.470;6.770;2022-12-31T05:39:11;1.50;;;0.80;;
3293;SDS011;1659;51.470;6.770;2022-12-31T05:41:37;3.47;;;1.00;;
3293;SDS011;1659;51.470;6.770;2022-12-31T05:44:04;2.30;;;1.03;;
3293;SDS011;1659;51.470;6.770;2022-12-31T05:46:30;2.67;;;1.13;;
3293;SDS011;1659;51.470;6.770;2022-12-31T05:48:57;5.90;;;1.20;;
3293;SDS011;1659;51.470;6.770;2022-12-31T05:51:23;1.00;;;1.00;;
3293;SDS011;1659;51.470;6.770;2022-12-31T05:53:51;1.50;;;0.90;;
3293;SDS011;1659;51.470;6.770;2022-12-31T05:56:18;1.30;;;0.97;;
3293;SDS011;1659;51.470;6.770;2022-12-31T05:58:44;1.30;;;1.00;;
3293;SDS011;1659;51.470;6.770;2022-12-31T06:01:11;4.00;;;0.80;;
3293;SDS011;1659;51.470;6.770;2022-12-31T06:03:37;1.13;;;0.93;;
3293;SDS011;1659;51.470;6.770;2022-12-31T06:06:04;0.80;;;0.80;;
3293;SDS011;1659;51.470;6.770;2022-12-31T06:08:32;2.33;;;1.00;;
3293;SDS011;1659;51.470;6.770;2022-12-31T06:11:00;0.73;;;0.73;;
3293;SDS011;1659;51.470;6.770;2022-12-31T06:13:26;6.20;;;0.97;;
3293;SDS011;1659;51.470;6.770;2022-12-31T06:15:53;1.00;;;0.83;;
3293;SDS011;1659;51.470;6.770;2022-12-31T06:18:22;1.60;;;1.00;;
3293;SDS011;1659;51.470;6.770;2022-12-31T06:20:48;2.30;;;1.00;;
3293;SDS011;1659;51.470;6.770;2022-12-31T06:23:15;2.60;;;1.30;;
3293;SDS011;1659;51.470;6.770;2022-12-31T06:25:41;3.33;;;1.00;;
3293;SDS011;1659;51.470;6.770;2022-12-31T06:28:09;1.43;;;1.07;;
3293;SDS011;1659;51.470;6.770;2022-12-31T06:30:36;2.17;;;0.80;;
3293;SDS011;1659;51.470;6.770;2022-12-31T06:33:02;1.23;;;0.93;;
3293;SDS011;1659;51.470;6.770;2022-12-31T06:35:29;2.10;;;1.00;;
3293;SDS011;1659;51.470;6.770;2022-12-31T06:37:55;1.27;;;1.17;;
3293;SDS011;1659;51.470;6.770;2022-12-31T06:40:22;0.80;;;0.80;;
3293;SDS011;1659;51.470;6.770;2022-12-31T06:42:49;2.73;;;0.90;;
3293;SDS011;1659;51.470;6.770;2022-12-31T06:45:17;1.57;;;1.40;;
3293;SDS011;1659;51.470;6.770;2022-12-31T06:47:43;1.00;;;1.00;;
3293;SDS011;1659;51.470;6.770;2022-12-31T06:50:10;1.53;;;0.90;;
3293;SDS011;1659;51.470;6.770;2022-12-31T06:52:36;1.40;;;1.10;;
3293;SDS011;1659;51.470;6.770;2022-12-31T06:55:03;1.73;;;1.00;;
3293;SDS011;1659;51.470;6.770;2022-12-31T06:57:31;1.80;;;0.93;;
3293;SDS011;1659;51.470;6.770;2022-12-31T06:59:58;1.10;;;0.80;;
3293;SDS011;1659;51.470;6.770;2022-12-31T07:02:29;3.27;;;1.30;;
3293;SDS011;1659;51.470;6.770;2022-12-31T07:05:20;1.77;;;1.30;;
3293;SDS011;1659;51.470;6.770;2022-12-31T07:07:57;1.17;;;1.07;;
3293;SDS011;1659;51.470;6.770;2022-12-31T07:10:35;2.63;;;1.10;;
3293;SDS011;1659;51.470;6.770;2022-12-31T07:13:19;1.17;;;1.00;;
3293;SDS011;1659;51.470;6.770;2022-12-31T07:16:00;1.77;;;0.93;;
3293;SDS011;1659;51.470;6.770;2022-12-31T07:18:37;2.53;;;1.20;;
3293;SDS011;1659;51.470;6.770;2022-12-31T07:21:10;2.50;;;1.43;;
3293;SDS011;1659;51.470;6.770;2022-12-31T07:23:39;2.63;;;1.10;;
3293;SDS011;1659;51.470;6.770;2022-12-31T07:26:08;1.30;;;1.20;;
3293;SDS011;1659;51.470;6.770;2022-12-31T07:28:46;4.40;;;1.10;;
3293;SDS011;1659;51.470;6.770;2022-12-31T07:31:24;3.63;;;1.27;;
3293;SDS011;1659;51.470;6.770;2022-12-31T07:34:02;1.30;;;1.30;;
3293;SDS011;1659;51.470;6.770;2022-12-31T07:36:42;2.60;;;1.13;;
3293;SDS011;1659;51.470;6.770;2022-12-31T07:39:20;1.83;;;1.00;;
3293;SDS011;1659;51.470;6.770;2022-12-31T07:41:53;8.30;;;1.60;;
3293;SDS011;1659;51.470;6.770;2022-12-31T07:44:40;1.67;;;1.13;;
3293;SDS011;1659;51.470;6.770;2022-12-31T07:47:20;4.90;;;1.40;;
3293;SDS011;1659;51.470;6.770;2022-12-31T07:49:50;2.70;;;1.10;;
3293;SDS011;1659;51.470;6.770;2022-12-31T07:52:17;2.10;;;1.03;;
3293;SDS011;1659;51.470;6.770;2022-12-31T07:54:44;2.70;;;1.50;;
3293;SDS011;1659;51.470;6.770;2022-12-31T07:57:11;4.33;;;1.17;;
3293;SDS011;1659;51.470;6.770;2022-12-31T07:59:43;1.23;;;1.13;;
3293;SDS011;1659;51.470;6.770;2022-12-31T08:02:20;2.40;;;1.30;;
3293;SDS011;1659;51.470;6.770;2022-12-31T08:05:02;2.93;;;1.33;;
3293;SDS011;1659;51.470;6.770;2022-12-31T08:07:36;2.40;;;1.30;;
3293;SDS011;1659;51.470;6.770;2022-12-31T08:10:12;1.17;;;0.97;;
3293;SDS011;1659;51.470;6.770;2022-12-31T08:12:46;5.90;;;2.20;;
3293;SDS011;1659;51.470;6.770;2022-12-31T08:15:15;2.63;;;1.23;;
3293;SDS011;1659;51.470;6.770;2022-12-31T08:17:43;6.20;;;1.77;;
3293;SDS011;1659;51.470;6.770;2022-12-31T08:20:13;2.23;;;1.20;;
3293;SDS011;1659;51.470;6.770;2022-12-31T08:22:44;1.50;;;1.27;;
3293;SDS011;1659;51.470;6.770;2022-12-31T08:25:25;2.30;;;1.60;;
3293;SDS011;1659;51.470;6.770;2022-12-31T08:28:01;1.47;;;1.30;;
3293;SDS011;1659;51.470;6.770;2022-12-31T08:30:34;3.03;;;1.30;;
3293;SDS011;1659;51.470;6.770;2022-12-31T08:33:08;3.03;;;1.30;;
3293;SDS011;1659;51.470;6.770;2022-12-31T08:35:45;10.43;;;1.50;;
3293;SDS011;1659;51.470;6.770;2022-12-31T08:38:22;2.97;;;1.13;;
3293;SDS011;1659;51.470;6.770;2022-12-31T08:40:56;2.73;;;1.80;;
3293;SDS011;1659;51.470;6.770;2022-12-31T08:43:36;2.13;;;1.33;;
3293;SDS011;1659;51.470;6.770;2022-12-31T08:46:13;1.93;;;1.20;;
3293;SDS011;1659;51.470;6.770;2022-12-31T08:48:47;1.60;;;1.00;;
3293;SDS011;1659;51.470;6.770;2022-12-31T08:51:16;0.77;;;0.77;;
3293;SDS011;1659;51.470;6.770;2022-12-31T08:53:45;2.20;;;1.60;;
3293;SDS011;1659;51.470;6.770;2022-12-31T08:56:21;2.23;;;1.30;;
3293;SDS011;1659;51.470;6.770;2022-12-31T08:58:58;3.50;;;1.47;;
3293;SDS011;1659;51.470;6.770;2022-12-31T09:01:35;1.70;;;1.20;;
3293;SDS011;1659;51.470;6.770;2022-12-31T09:04:25;4.67;;;1.60;;
3293;SDS011;1659;51.470;6.770;2022-12-31T09:07:02;2.20;;;1.40;;
3293;SDS011;1659;51.470;6.770;2022-12-31T09:09:33;2.50;;;1.33;;
3293;SDS011;1659;51.470;6.770;2022-12-31T09:12:09;1.80;;;1.10;;
3293;SDS011;1659;51.470;6.770;2022-12-31T09:14:43;4.60;;;1.90;;
3293;SDS011;1659;51.470;6.770;2022-12-31T09:17:23;2.30;;;1.10;;
3293;SDS011;1659;51.470;6.770;2022-12-31T09:19:58;3.27;;;1.43;;
3293;SDS011;1659;51.470;6.770;2022-12-31T09:22:27;1.60;;;1.50;;
3293;SDS011;1659;51.470;6.770;2022-12-31T09:24:54;1.50;;;1.40;;
3293;SDS011;1659;51.470;6.770;2022-12-31T09:27:21;5.70;;;1.77;;
3293;SDS011;1659;51.470;6.770;2022-12-31T09:29:54;4.17;;;1.60;;
3293;SDS011;1659;51.470;6.770;2022-12-31T09:32:29;1.43;;;1.33;;
3293;SDS011;1659;51.470;6.770;2022-12-31T09:35:08;1.77;;;1.40;;
3293;SDS011;1659;51.470;6.770;2022-12-31T09:37:45;3.07;;;1.53;;
3293;SDS011;1659;51.470;6.770;2022-12-31T09:40:30;1.60;;;1.50;;
3293;SDS011;1659;51.470;6.770;2022-12-31T09:46:23;4.93;;;1.90;;
3293;SDS011;1659;51.470;6.770;2022-12-31T09:49:22;4.90;;;1.17;;
3293;SDS011;1659;51.470;6.770;2022-12-31T09:52:13;3.13;;;1.20;;
3293;SDS011;1659;51.470;6.770;2022-12-31T09:54:51;3.53;;;1.77;;
3293;SDS011;1659;51.470;6.770;2022-12-31T09:57:29;2.80;;;1.57;;
3293;SDS011;1659;51.470;6.770;2022-12-31T10:00:04;6.87;;;1.90;;
3293;SDS011;1659;51.470;6.770;2022-12-31T10:02:45;2.80;;;1.53;;
3293;SDS011;1659;51.470;6.770;2022-12-31T10:08:23;2.77;;;1.80;;
3293;SDS011;1659;51.470;6.770;2022-12-31T10:11:04;3.30;;;1.30;;
3293;SDS011;1659;51.470;6.770;2022-12-31T10:13:46;1.30;;;1.20;;
3293;SDS011;1659;51.470;6.770;2022-12-31T10:16:30;2.57;;;1.73;;
3293;SDS011;1659;51.470;6.770;2022-12-31T10:22:01;1.83;;;1.53;;
3293;SDS011;1659;51.470;6.770;2022-12-31T10:24:43;4.90;;;1.90;;
3293;SDS011;1659;51.470;6.770;2022-12-31T10:27:21;4.10;;;1.87;;
3293;SDS011;1659;51.470;6.770;2022-12-31T10:30:01;2.23;;;1.20;;
3293;SDS011;1659;51.470;6.770;2022-12-31T10:32:36;3.03;;;1.53;;
3293;SDS011;1659;51.470;6.770;2022-12-31T10:35:13;2.00;;;1.80;;
3293;SDS011;1659;51.470;6.770;2022-12-31T10:37:55;4.43;;;1.50;;
3293;SDS011;1659;51.470;6.770;2022-12-31T10:40:33;5.30;;;1.87;;
3293;SDS011;1659;51.470;6.770;2022-12-31T10:59:00;2.77;;;1.53;;
3293;SDS011;1659;51.470;6.770;2022-12-31T11:01:47;3.17;;;1.47;;
3293;SDS011;1659;51.470;6.770;2022-12-31T11:07:41;2.30;;;1.70;;
3293;SDS011;1659;51.470;6.770;2022-12-31T11:13:27;8.37;;;1.97;;
3293;SDS011;1659;51.470;6.770;2022-12-31T11:16:31;6.10;;;2.27;;
3293;SDS011;1659;51.470;6.770;2022-12-31T11:19:09;2.43;;;2.07;;
3293;SDS011;1659;51.470;6.770;2022-12-31T11:21:49;4.60;;;1.80;;
3293;SDS011;1659;51.470;6.770;2022-12-31T11:24:33;1.50;;;1.40;;
3293;SDS011;1659;51.470;6.770;2022-12-31T11:27:09;2.13;;;1.60;;
3293;SDS011;1659;51.470;6.770;2022-12-31T11:29:52;2.73;;;1.83;;
3293;SDS011;1659;51.470;6.770;2022-12-31T11:32:34;3.93;;;2.23;;
3293;SDS011;1659;51.470;6.770;2022-12-31T11:35:17;1.33;;;1.23;;
3293;SDS011;1659;51.470;6.770;2022-12-31T11:37:48;2.40;;;1.80;;
3293;SDS011;1659;51.470;6.770;2022-12-31T11:40:30;2.93;;;1.53;;
3293;SDS011;1659;51.470;6.770;2022-12-31T11:43:01;5.23;;;1.80;;
3293;SDS011;1659;51.470;6.770;2022-12-31T11:45:43;5.07;;;1.67;;
3293;SDS011;1659;51.470;6.770;2022-12-31T11:48:27;2.83;;;1.50;;
3293;SDS011;1659;51.470;6.770;2022-12-31T11:51:04;8.70;;;2.20;;
3293;SDS011;1659;51.470;6.770;2022-12-31T11:53:57;2.10;;;1.90;;
3293;SDS011;1659;51.470;6.770;2022-12-31T11:56:40;2.93;;;2.03;;
3293;SDS011;1659;51.470;6.770;2022-12-31T11:59:10;5.50;;;1.93;;
3293;SDS011;1659;51.470;6.770;2022-12-31T12:01:42;3.57;;;1.60;;
3293;SDS011;1659;51.470;6.770;2022-12-31T12:04:18;3.23;;;1.73;;
3293;SDS011;1659;51.470;6.770;2022-12-31T12:06:45;3.80;;;1.50;;
3293;SDS011;1659;51.470;6.770;2022-12-31T12:09:13;2.43;;;1.70;;
3293;SDS011;1659;51.470;6.770;2022-12-31T12:11:42;11.93;;;5.80;;
3293;SDS011;1659;51.470;6.770;2022-12-31T12:14:18;11.60;;;3.80;;
3293;SDS011;1659;51.470;6.770;2022-12-31T12:16:45;7.87;;;2.53;;
3293;SDS011;1659;51.470;6.770;2022-12-31T12:19:15;1.73;;;1.40;;
3293;SDS011;1659;51.470;6.770;2022-12-31T12:21:45;5.23;;;2.10;;
3293;SDS011;1659;51.470;6.770;2022-12-31T12:24:17;3.33;;;2.23;;
3293;SDS011;1659;51.470;6.770;2022-12-31T12:26:45;3.33;;;1.90;;
3293;SDS011;1659;51.470;6.770;2022-12-31T12:29:16;2.57;;;2.13;;
3293;SDS011;1659;51.470;6.770;2022-12-31T12:31:53;3.77;;;2.00;;
3293;SDS011;1659;51.470;6.770;2022-12-31T12:34:21;5.13;;;1.93;;
3293;SDS011;1659;51.470;6.770;2022-12-31T12:36:50;7.43;;;2.10;;
3293;SDS011;1659;51.470;6.770;2022-12-31T12:39:18;3.90;;;2.03;;
3293;SDS011;1659;51.470;6.770;2022-12-31T12:41:46;4.83;;;2.10;;
3293;SDS011;1659;51.470;6.770;2022-12-31T12:44:23;5.83;;;2.27;;
3293;SDS011;1659;51.470;6.770;2022-12-31T12:46:50;2.07;;;1.73;;
3293;SDS011;1659;51.470;6.770;2022-12-31T12:49:20;3.60;;;2.30;;
3293;SDS011;1659;51.470;6.770;2022-12-31T12:51:56;3.13;;;2.17;;
3293;SDS011;1659;51.470;6.770;2022-12-31T12:54:36;3.77;;;2.17;;
3293;SDS011;1659;51.470;6.770;2022-12-31T12:57:19;3.40;;;2.20;;
3293;SDS011;1659;51.470;6.770;2022-12-31T13:00:02;2.30;;;2.20;;
3293;SDS011;1659;51.470;6.770;2022-12-31T13:02:44;10.50;;;2.60;;
3293;SDS011;1659;51.470;6.770;2022-12-31T13:05:37;10.03;;;2.90;;
3293;SDS011;1659;51.470;6.770;2022-12-31T13:08:16;3.07;;;1.93;;
3293;SDS011;1659;51.470;6.770;2022-12-31T13:11:09;4.67;;;2.47;;
3293;SDS011;1659;51.470;6.770;2022-12-31T13:13:46;8.23;;;2.93;;
3293;SDS011;1659;51.470;6.770;2022-12-31T13:16:18;7.93;;;2.37;;
3293;SDS011;1659;51.470;6.770;2022-12-31T13:18:53;5.90;;;2.23;;
3293;SDS011;1659;51.470;6.770;2022-12-31T13:21:30;5.13;;;2.50;;
3293;SDS011;1659;51.470;6.770;2022-12-31T13:24:04;4.77;;;2.23;;
3293;SDS011;1659;51.470;6.770;2022-12-31T13:26:37;5.30;;;1.93;;
3293;SDS011;1659;51.470;6.770;2022-12-31T13:29:11;5.50;;;2.20;;
3293;SDS011;1659;51.470;6.770;2022-12-31T13:31:43;2.60;;;2.23;;
3293;SDS011;1659;51.470;6.770;2022-12-31T13:34:11;4.37;;;2.27;;
3293;SDS011;1659;51.470;6.770;2022-12-31T13:36:41;3.33;;;2.30;;
3293;SDS011;1659;51.470;6.770;2022-12-31T13:39:13;7.97;;;2.30;;
3293;SDS011;1659;51.470;6.770;2022-12-31T13:41:44;4.50;;;2.53;;
3293;SDS011;1659;51.470;6.770;2022-12-31T13:44:17;4.60;;;2.60;;
3293;SDS011;1659;51.470;6.770;2022-12-31T13:46:52;9.87;;;2.50;;
3293;SDS011;1659;51.470;6.770;2022-12-31T13:49:27;2.80;;;2.30;;
3293;SDS011;1659;51.470;6.770;2022-12-31T13:51:57;4.03;;;1.87;;
3293;SDS011;1659;51.470;6.770;2022-12-31T13:54:32;3.43;;;2.30;;
3293;SDS011;1659;51.470;6.770;2022-12-31T13:57:04;4.80;;;2.83;;
3293;SDS011;1659;51.470;6.770;2022-12-31T13:59:37;5.90;;;2.70;;
3293;SDS011;1659;51.470;6.770;2022-12-31T14:02:12;6.03;;;2.60;;
3293;SDS011;1659;51.470;6.770;2022-12-31T14:04:56;3.33;;;2.67;;
3293;SDS011;1659;51.470;6.770;2022-12-31T14:07:30;7.50;;;2.40;;
3293;SDS011;1659;51.470;6.770;2022-12-31T14:10:04;3.77;;;2.60;;
3293;SDS011;1659;51.470;6.770;2022-12-31T14:12:39;7.50;;;2.33;;
3293;SDS011;1659;51.470;6.770;2022-12-31T14:15:12;6.77;;;2.23;;
3293;SDS011;1659;51.470;6.770;2022-12-31T14:17:44;2.60;;;2.37;;
3293;SDS011;1659;51.470;6.770;2022-12-31T14:20:17;5.60;;;2.60;;
3293;SDS011;1659;51.470;6.770;2022-12-31T14:22:50;6.17;;;2.30;;
3293;SDS011;1659;51.470;6.770;2022-12-31T14:25:29;4.50;;;2.60;;
3293;SDS011;1659;51.470;6.770;2022-12-31T14:27:58;7.30;;;2.60;;
3293;SDS011;1659;51.470;6.770;2022-12-31T14:30:28;3.20;;;2.40;;
3293;SDS011;1659;51.470;6.770;2022-12-31T14:33:01;5.97;;;2.60;;
3293;SDS011;1659;51.470;6.770;2022-12-31T14:35:49;8.40;;;2.70;;
3293;SDS011;1659;51.470;6.770;2022-12-31T14:38:26;2.80;;;2.60;;
3293;SDS011;1659;51.470;6.770;2022-12-31T14:41:08;8.60;;;2.90;;
3293;SDS011;1659;51.470;6.770;2022-12-31T14:43:49;8.20;;;3.17;;
3293;SDS011;1659;51.470;6.770;2022-12-31T14:46:27;5.90;;;3.00;;
3293;SDS011;1659;51.470;6.770;2022-12-31T14:49:03;9.63;;;3.20;;
3293;SDS011;1659;51.470;6.770;2022-12-31T14:51:41;8.00;;;3.30;;
3293;SDS011;1659;51.470;6.770;2022-12-31T14:54:22;5.53;;;3.00;;
3293;SDS011;1659;51.470;6.770;2022-12-31T14:56:53;5.97;;;3.67;;
3293;SDS011;1659;51.470;6.770;2022-12-31T14:59:22;4.93;;;3.53;;
3293;SDS011;1659;51.470;6.770;2022-12-31T15:01:51;4.80;;;3.53;;
3293;SDS011;1659;51.470;6.770;2022-12-31T15:04:26;13.10;;;3.67;;
3293;SDS011;1659;51.470;6.770;2022-12-31T15:06:56;11.17;;;4.70;;
3293;SDS011;1659;51.470;6.770;2022-12-31T15:09:40;12.70;;;4.30;;
3293;SDS011;1659;51.470;6.770;2022-12-31T15:12:27;6.13;;;4.00;;
3293;SDS011;1659;51.470;6.770;2022-12-31T15:15:08;9.27;;;4.23;;
3293;SDS011;1659;51.470;6.770;2022-12-31T15:17:49;13.07;;;4.93;;
3293;SDS011;1659;51.470;6.770;2022-12-31T15:20:31;5.17;;;4.30;;
3293;SDS011;1659;51.470;6.770;2022-12-31T15:23:12;13.27;;;5.53;;
3293;SDS011;1659;51.470;6.770;2022-12-31T15:25:45;10.00;;;5.17;;
3293;SDS011;1659;51.470;6.770;2022-12-31T15:28:24;14.17;;;5.70;;
3293;SDS011;1659;51.470;6.770;2022-12-31T15:30:57;11.00;;;4.43;;
3293;SDS011;1659;51.470;6.770;2022-12-31T15:33:31;9.53;;;4.67;;
3293;SDS011;1659;51.470;6.770;2022-12-31T15:36:13;9.93;;;4.90;;
3293;SDS011;1659;51.470;6.770;2022-12-31T15:38:42;9.87;;;5.30;;
3293;SDS011;1659;51.470;6.770;2022-12-31T15:41:24;10.33;;;4.90;;
3293;SDS011;1659;51.470;6.770;2022-12-31T15:43:55;12.87;;;5.93;;
3293;SDS011;1659;51.470;6.770;2022-12-31T15:46:27;9.80;;;6.13;;
3293;SDS011;1659;51.470;6.770;2022-12-31T15:48:57;12.27;;;6.30;;
3293;SDS011;1659;51.470;6.770;2022-12-31T15:51:28;9.20;;;6.13;;
3293;SDS011;1659;51.470;6.770;2022-12-31T15:53:57;10.50;;;5.63;;
3293;SDS011;1659;51.470;6.770;2022-12-31T15:56:30;8.70;;;4.40;;
3293;SDS011;1659;51.470;6.770;2022-12-31T15:59:02;5.43;;;4.00;;
3293;SDS011;1659;51.470;6.770;2022-12-31T16:01:31;8.70;;;3.33;;
3293;SDS011;1659;51.470;6.770;2022-12-31T16:04:00;13.00;;;3.90;;
3293;SDS011;1659;51.470;6.770;2022-12-31T16:06:31;4.63;;;4.20;;
3293;SDS011;1659;51.470;6.770;2022-12-31T16:09:01;6.70;;;3.73;;
3293;SDS011;1659;51.470;6.770;2022-12-31T16:11:34;10.00;;;5.47;;
3293;SDS011;1659;51.470;6.770;2022-12-31T16:14:03;7.80;;;5.00;;
3293;SDS011;1659;51.470;6.770;2022-12-31T16:16:31;5.73;;;4.57;;
3293;SDS011;1659;51.470;6.770;2022-12-31T16:18:58;6.23;;;5.07;;
3293;SDS011;1659;51.470;6.770;2022-12-31T16:21:27;12.40;;;4.17;;
3293;SDS011;1659;51.470;6.770;2022-12-31T16:23:57;12.30;;;4.80;;
3293;SDS011;1659;51.470;6.770;2022-12-31T16:26:27;8.13;;;5.10;;
3293;SDS011;1659;51.470;6.770;2022-12-31T16:28:56;7.53;;;5.10;;
3293;SDS011;1659;51.470;6.770;2022-12-31T16:31:27;11.50;;;4.80;;
3293;SDS011;1659;51.470;6.770;2022-12-31T16:34:04;6.43;;;3.53;;
3293;SDS011;1659;51.470;6.770;2022-12-31T16:36:36;10.17;;;4.07;;
3293;SDS011;1659;51.470;6.770;2022-12-31T16:39:19;7.30;;;3.23;;
3293;SDS011;1659;51.470;6.770;2022-12-31T16:41:52;6.70;;;4.00;;
3293;SDS011;1659;51.470;6.770;2022-12-31T16:44:31;4.93;;;3.57;;